createdAt,value
2022-09-05T00:00:11.649Z,15.66
2022-09-05T00:03:00.626Z,15.62
2022-09-05T00:06:02.643Z,15.58
2022-09-05T00:08:52.466Z,15.52
2022-09-05T00:11:42.374Z,15.49
2022-09-05T00:15:14.673Z,15.45
2022-09-05T00:18:24.737Z,15.35
2022-09-05T00:24:20.309Z,15.24
2022-09-05T00:24:20.595Z,15.31
2022-09-05T00:26:53.004Z,15.19
2022-09-05T00:31:06.982Z,15.19
2022-09-05T00:33:19.570Z,15.11
2022-09-05T00:36:05.991Z,15.05
2022-09-05T00:38:36.898Z,15.02
2022-09-05T00:41:08.398Z,15.07
2022-09-05T00:43:42.306Z,15.07
2022-09-05T00:46:17.161Z,15.07
2022-09-05T00:49:13.155Z,15.05
2022-09-05T00:51:55.061Z,15.10
2022-09-05T00:54:56.785Z,15.15
2022-09-05T00:57:39.769Z,15.18
2022-09-05T01:00:18.713Z,15.19
2022-09-05T01:03:16.242Z,15.12
2022-09-05T01:06:14.219Z,15.04
2022-09-05T01:09:08.271Z,15.01
2022-09-05T01:11:39.994Z,14.93
2022-09-05T01:14:44.374Z,14.79
2022-09-05T01:17:29.311Z,14.69
2022-09-05T01:20:29.722Z,14.65
2022-09-05T01:23:30.155Z,14.64
2022-09-05T01:26:35.736Z,14.66
2022-09-05T01:29:19.129Z,14.61
2022-09-05T01:32:11.294Z,14.58
2022-09-05T01:34:56.249Z,14.57
2022-09-05T01:37:46.206Z,14.49
2022-09-05T01:40:23.638Z,14.43
2022-09-05T01:43:17.963Z,14.39
2022-09-05T01:45:51.314Z,14.33
2022-09-05T01:48:35.684Z,14.27
2022-09-05T01:51:40.504Z,14.23
2022-09-05T01:54:27.830Z,14.25
2022-09-05T01:57:31.563Z,14.33
2022-09-05T02:00:07.733Z,14.39
2022-09-05T02:02:59.303Z,14.37
2022-09-05T02:05:51.788Z,14.33
2022-09-05T02:09:02.405Z,14.37
2022-09-05T02:11:51.056Z,14.40
2022-09-05T02:14:38.934Z,14.44
2022-09-05T02:17:35.054Z,14.38
2022-09-05T02:20:24.904Z,14.31
2022-09-05T02:23:24.655Z,14.44
2022-09-05T02:26:23.628Z,14.45
2022-09-05T02:28:58.306Z,14.37
2022-09-05T02:31:40.090Z,14.39
2022-09-05T02:34:25.431Z,14.36
2022-09-05T02:37:03.498Z,14.40
2022-09-05T02:45:03.294Z,14.29
2022-09-05T02:45:07.133Z,14.26
2022-09-05T02:45:56.207Z,14.16
2022-09-05T02:48:22.598Z,14.15
2022-09-05T02:56:59.201Z,14.09
2022-09-05T02:57:37.619Z,14.21
2022-09-05T02:57:37.963Z,14.28
2022-09-05T03:00:09.610Z,14.28
2022-09-05T03:02:54.535Z,14.27
2022-09-05T03:05:27.611Z,14.36
2022-09-05T03:08:21.231Z,14.36
2022-09-05T03:10:56.761Z,14.32
2022-09-05T03:13:54.442Z,14.32
2022-09-05T03:16:47.167Z,14.36
2022-09-05T03:19:22.808Z,14.43
2022-09-05T03:22:08.100Z,14.36
2022-09-05T03:24:56.929Z,14.38
2022-09-05T03:27:35.347Z,14.42
2022-09-05T03:30:04.640Z,14.42
2022-09-05T03:32:59.084Z,14.42
2022-09-05T03:36:04.287Z,14.45
2022-09-05T03:38:48.825Z,14.44
2022-09-05T03:41:40.098Z,14.41
2022-09-05T03:44:19.312Z,14.34
2022-09-05T03:47:25.603Z,14.19
2022-09-05T03:53:09.865Z,14.04
2022-09-05T03:57:14.631Z,13.96
2022-09-05T03:57:24.631Z,13.87
2022-09-05T03:59:30.918Z,13.76
2022-09-05T04:03:29.432Z,13.78
2022-09-05T04:08:17.538Z,13.84
2022-09-05T04:08:32.495Z,13.87
2022-09-05T04:11:00.271Z,13.96
2022-09-05T04:13:46.228Z,14.05
2022-09-05T04:16:22.384Z,14.10
2022-09-05T04:18:53.666Z,14.18
2022-09-05T04:21:34.897Z,14.24
2022-09-05T04:24:06.367Z,14.32
2022-09-05T04:26:45.110Z,14.36
2022-09-05T04:29:44.633Z,14.46
2022-09-05T04:32:24.030Z,14.58
2022-09-05T04:35:23.010Z,14.77
2022-09-05T04:38:06.084Z,14.81
2022-09-05T04:40:42.229Z,14.93
2022-09-05T04:43:17.673Z,14.92
2022-09-05T04:45:51.101Z,14.97
2022-09-05T04:48:41.035Z,14.99
2022-09-05T04:51:26.217Z,15.02
2022-09-05T04:54:11.160Z,15.05
2022-09-05T04:56:42.957Z,15.03
2022-09-05T05:01:24.298Z,15.15
2022-09-05T05:06:13.495Z,15.07
2022-09-05T05:06:17.343Z,15.11
2022-09-05T05:08:12.358Z,15.17
2022-09-05T05:17:56.499Z,15.17
2022-09-05T05:17:59.309Z,15.20
2022-09-05T05:18:03.732Z,15.14
2022-09-05T05:20:41.906Z,15.18
2022-09-05T05:23:13.260Z,15.23
2022-09-05T05:25:50.762Z,15.32
2022-09-05T05:28:31.521Z,15.39
2022-09-05T05:31:10.251Z,15.56
2022-09-05T05:33:39.385Z,15.66
2022-09-05T05:36:08.393Z,15.77
2022-09-05T05:38:45.121Z,15.82
2022-09-05T05:41:19.561Z,15.92
2022-09-05T05:43:47.227Z,16.05
2022-09-05T05:46:24.810Z,16.16
2022-09-05T05:48:57.366Z,16.27
2022-09-05T05:52:17.616Z,16.57
2022-09-05T05:55:50.530Z,16.83
2022-09-05T05:58:22.082Z,16.94
2022-09-05T06:01:08.635Z,17.09
2022-09-05T06:04:15.553Z,17.36
2022-09-05T06:07:09.680Z,17.61
2022-09-05T06:14:53.197Z,17.83
2022-09-05T06:14:56.532Z,18.01
2022-09-05T06:15:57.430Z,18.27
2022-09-05T06:18:59.481Z,18.40
2022-09-05T06:22:11.352Z,18.51
2022-09-05T06:25:16.487Z,18.60
2022-09-05T06:28:18.129Z,18.89
2022-09-05T06:31:27.639Z,18.90
2022-09-05T06:33:59.547Z,18.66
2022-09-05T06:36:35.835Z,19.23
2022-09-05T06:39:39.067Z,19.31
2022-09-05T06:42:42.352Z,19.44
2022-09-05T06:45:38.349Z,19.47
2022-09-05T06:48:36.608Z,19.90
2022-09-05T06:51:18.889Z,20.08
2022-09-05T06:54:09.876Z,20.20
2022-09-05T06:56:58.555Z,20.22
2022-09-05T07:00:06.654Z,20.38
2022-09-05T07:03:03.976Z,20.55
2022-09-05T07:05:45.092Z,20.38
2022-09-05T07:08:56.044Z,20.63
2022-09-05T07:11:50.065Z,20.94
2022-09-05T07:14:20.334Z,21.17
2022-09-05T07:16:55.177Z,21.14
2022-09-05T07:19:27.618Z,21.06
2022-09-05T07:22:06.186Z,21.38
2022-09-05T07:24:53.807Z,21.64
2022-09-05T07:28:26.116Z,21.84
2022-09-05T07:30:40.045Z,22.22
2022-09-05T07:33:07.604Z,22.22
2022-09-05T07:35:42.249Z,22.55
2022-09-05T07:38:20.047Z,22.77
2022-09-05T07:40:58.034Z,22.86
2022-09-05T07:43:39.361Z,22.77
2022-09-05T07:46:20.550Z,22.97
2022-09-05T07:49:00.839Z,23.08
2022-09-05T07:56:50.532Z,23.11
2022-09-05T07:57:01.147Z,23.41
2022-09-05T07:57:29.976Z,23.86
2022-09-05T08:00:05.734Z,23.77
2022-09-05T08:02:32.235Z,23.87
2022-09-05T08:05:04.329Z,23.92
2022-09-05T08:07:49.901Z,23.85
2022-09-05T08:10:35.788Z,24.19
2022-09-05T08:13:23.373Z,24.69
2022-09-05T08:16:10.204Z,24.71
2022-09-05T08:18:46.136Z,24.88
2022-09-05T08:21:41.966Z,24.55
2022-09-05T08:24:23.795Z,24.61
2022-09-05T08:27:02.616Z,25.02
2022-09-05T08:29:34.125Z,25.08
2022-09-05T08:32:11.338Z,24.94
2022-09-05T08:34:47.735Z,25.08
2022-09-05T08:37:21.961Z,25.35
2022-09-05T08:40:11.082Z,25.77
2022-09-05T08:46:30.609Z,25.71
2022-09-05T08:46:47.176Z,25.53
2022-09-05T08:49:16.255Z,25.29
2022-09-05T08:52:08.177Z,25.32
2022-09-05T08:55:05.781Z,25.45
2022-09-05T08:57:45.291Z,25.70
2022-09-05T09:00:20.251Z,25.84
2022-09-05T09:03:15.910Z,26.05
2022-09-05T09:06:12.359Z,26.10
2022-09-05T09:09:10.315Z,26.30
2022-09-05T09:12:04.108Z,26.26
2022-09-05T09:14:54.594Z,26.58
2022-09-05T09:17:26.881Z,27.10
2022-09-05T09:20:15.238Z,27.18
2022-09-05T09:22:53.503Z,27.30
2022-09-05T09:25:29.570Z,27.45
2022-09-05T09:28:48.916Z,27.41
2022-09-05T09:31:16.962Z,27.21
2022-09-05T09:33:50.331Z,27.05
2022-09-05T09:36:43.751Z,27.04
2022-09-05T09:39:37.566Z,27.16
2022-09-05T09:42:41.126Z,27.27
2022-09-05T09:45:29.199Z,26.94
2022-09-05T09:48:12.099Z,26.62
2022-09-05T09:51:02.135Z,26.83
2022-09-05T09:54:10.540Z,27.14
2022-09-05T09:56:52.381Z,27.40
2022-09-05T09:59:29.513Z,27.76
2022-09-05T10:04:12.544Z,27.71
2022-09-05T10:10:34.433Z,27.57
2022-09-05T10:10:52.853Z,27.71
2022-09-05T10:11:54.929Z,27.70
2022-09-05T10:14:50.111Z,27.80
2022-09-05T10:17:39.546Z,27.54
2022-09-05T10:20:29.165Z,27.87
2022-09-05T10:23:25.260Z,28.02
2022-09-05T10:26:10.318Z,28.37
2022-09-05T10:29:37.452Z,28.48
2022-09-05T10:35:05.712Z,28.35
2022-09-05T10:35:19.763Z,28.46
2022-09-05T10:37:58.333Z,28.63
2022-09-05T10:40:27.471Z,28.47
2022-09-05T10:43:17.701Z,28.47
2022-09-05T10:45:57.462Z,28.62
2022-09-05T10:48:53.266Z,29.04
2022-09-05T10:51:43.101Z,28.93
2022-09-05T10:54:45.393Z,29.04
2022-09-05T10:57:15.015Z,28.87
2022-09-05T11:02:23.064Z,28.71
2022-09-05T11:02:57.995Z,28.60
2022-09-05T11:05:51.108Z,28.95
2022-09-05T11:08:35.544Z,29.18
2022-09-05T11:11:29.529Z,29.63
2022-09-05T11:14:07.225Z,29.75
2022-09-05T11:16:56.505Z,29.96
2022-09-05T11:19:42.957Z,30.39
2022-09-05T11:22:22.675Z,30.13
2022-09-05T11:24:55.731Z,30.17
2022-09-05T11:27:40.571Z,30.43
2022-09-05T11:30:30.043Z,30.45
2022-09-05T11:39:31.108Z,30.17
2022-09-05T11:39:59.728Z,29.72
2022-09-05T11:40:31.454Z,29.23
2022-09-05T11:43:17.009Z,29.18
2022-09-05T11:45:46.310Z,29.36
2022-09-05T11:48:31.179Z,29.89
2022-09-05T11:51:51.680Z,29.90
2022-09-05T11:54:56.441Z,30.09
2022-09-05T11:57:57.031Z,30.35
2022-09-05T12:00:31.363Z,30.80
2022-09-05T12:03:41.449Z,30.62
2022-09-05T12:07:27.041Z,30.53
2022-09-05T12:10:46.123Z,30.56
2022-09-05T12:13:26.464Z,30.91
2022-09-05T12:16:08.336Z,31.29
2022-09-05T12:19:19.232Z,31.26
2022-09-05T12:22:23.929Z,31.44
2022-09-05T12:25:17.025Z,31.25
2022-09-05T12:27:47.395Z,31.33
2022-09-05T12:30:33.631Z,31.03
2022-09-05T12:36:02.109Z,31.16
2022-09-05T12:40:43.438Z,30.77
2022-09-05T12:41:31.951Z,30.42
2022-09-05T12:42:23.829Z,30.15
2022-09-05T12:45:09.819Z,29.81
2022-09-05T12:48:05.797Z,29.71
2022-09-05T12:50:57.580Z,29.56
2022-09-05T12:53:26.415Z,29.86
2022-09-05T12:57:37.312Z,30.10
2022-09-05T13:03:05.818Z,30.68
2022-09-05T13:03:12.331Z,31.95
2022-09-05T13:05:01.521Z,32.58
2022-09-05T13:07:57.024Z,31.96
2022-09-05T13:14:28.991Z,33.18
2022-09-05T13:14:55.593Z,32.29
2022-09-05T13:16:25.225Z,32.37
2022-09-05T13:19:07.514Z,32.44
2022-09-05T13:21:40.380Z,31.40
2022-09-05T13:24:27.356Z,30.93
2022-09-05T13:27:05.609Z,30.67
2022-09-05T13:31:40.661Z,30.37
2022-09-05T13:38:17.617Z,31.70
2022-09-05T13:38:20.783Z,30.95
2022-09-05T13:38:48.885Z,32.41
2022-09-05T13:41:41.444Z,32.17
2022-09-05T13:44:26.855Z,31.95
2022-09-05T13:47:28.826Z,31.37
2022-09-05T13:50:20.001Z,31.22
2022-09-05T13:52:55.809Z,30.86
2022-09-05T13:55:38.142Z,31.48
2022-09-05T13:58:11.513Z,32.17
2022-09-05T14:00:40.801Z,31.44
2022-09-05T14:03:55.692Z,31.06
2022-09-05T14:06:45.740Z,31.67
2022-09-05T14:09:42.631Z,31.70
2022-09-05T14:12:29.256Z,31.04
2022-09-05T14:15:14.561Z,30.77
2022-09-05T14:17:57.822Z,30.49
2022-09-05T14:20:49.760Z,30.70
2022-09-05T14:23:19.001Z,30.71
2022-09-05T14:25:56.755Z,30.81
2022-09-05T14:28:50.072Z,30.77
2022-09-05T14:35:26.400Z,30.87
2022-09-05T14:37:41.285Z,30.64
2022-09-05T14:38:04.252Z,30.55
2022-09-05T14:40:59.112Z,30.38
2022-09-05T14:43:44.696Z,30.03
2022-09-05T14:46:39.179Z,30.11
2022-09-05T14:49:24.264Z,30.13
2022-09-05T14:51:54.793Z,29.97
2022-09-05T15:02:39.479Z,29.01
2022-09-05T15:02:45.358Z,28.80
2022-09-05T15:06:44.380Z,28.35
2022-09-05T15:11:45.671Z,28.29
2022-09-05T15:12:23.172Z,28.37
2022-09-05T15:15:00.592Z,28.29
2022-09-05T15:17:28.869Z,28.23
2022-09-05T15:20:05.103Z,28.06
2022-09-05T15:22:38.654Z,27.82
2022-09-05T15:25:17.686Z,27.88
2022-09-05T15:27:46.148Z,27.65
2022-09-05T15:30:20.430Z,27.42
2022-09-05T15:32:50.614Z,27.29
2022-09-05T15:35:36.542Z,27.20
2022-09-05T15:38:22.633Z,27.19
2022-09-05T15:41:07.608Z,27.07
2022-09-05T15:43:38.420Z,26.78
2022-09-05T15:46:05.579Z,26.59
2022-09-05T15:48:34.891Z,26.28
2022-09-05T15:51:24.394Z,26.12
2022-09-05T15:53:52.022Z,26.01
2022-09-05T15:56:21.140Z,25.86
2022-09-05T15:58:55.496Z,25.79
2022-09-05T16:01:59.890Z,25.66
2022-09-05T16:10:27.679Z,25.61
2022-09-05T16:10:35.968Z,25.44
2022-09-05T16:10:50.407Z,25.58
2022-09-05T16:12:58.726Z,25.36
2022-09-05T16:20:18.718Z,25.24
2022-09-05T16:23:14.959Z,25.06
2022-09-05T16:23:33.825Z,24.85
2022-09-05T16:24:27.106Z,24.72
2022-09-05T16:27:09.312Z,24.66
2022-09-05T16:29:42.181Z,24.64
2022-09-05T16:32:21.264Z,24.52
2022-09-05T16:34:56.254Z,24.47
2022-09-05T16:37:49.124Z,24.37
2022-09-05T16:40:28.540Z,24.25
2022-09-05T16:43:08.367Z,24.18
2022-09-05T16:46:00.196Z,23.94
2022-09-05T16:48:54.956Z,23.75
2022-09-05T16:51:36.100Z,23.61
2022-09-05T16:54:05.511Z,23.49
2022-09-05T16:56:48.837Z,23.34
2022-09-05T16:59:22.006Z,23.21
2022-09-05T17:02:27.647Z,23.09
2022-09-05T17:05:06.292Z,23.02
2022-09-05T17:07:54.391Z,22.88
2022-09-05T17:10:26.664Z,22.75
2022-09-05T17:12:54.982Z,22.70
2022-09-05T17:15:38.351Z,22.62
2022-09-05T17:18:25.110Z,22.53
2022-09-05T17:20:54.307Z,22.40
2022-09-05T17:27:00.804Z,22.28
2022-09-05T17:29:31.933Z,22.22
2022-09-05T17:32:47.617Z,22.07
2022-09-05T17:35:42.427Z,21.93
2022-09-05T17:38:28.409Z,21.85
2022-09-05T17:41:13.901Z,21.79
2022-09-05T17:43:41.344Z,21.71
2022-09-05T17:46:27.316Z,21.65
2022-09-05T17:49:17.970Z,21.56
2022-09-05T17:51:52.818Z,21.49
2022-09-05T17:54:28.186Z,21.42
2022-09-05T17:56:54.669Z,21.38
2022-09-05T17:59:21.318Z,21.32
2022-09-05T18:02:02.831Z,21.24
2022-09-05T18:04:46.300Z,21.20
2022-09-05T18:07:42.330Z,21.15
2022-09-05T18:10:15.104Z,21.10
2022-09-05T18:13:12.985Z,21.03
2022-09-05T18:15:40.463Z,20.99
2022-09-05T18:19:27.702Z,20.96
2022-09-05T18:21:22.085Z,20.94
2022-09-05T18:24:00.754Z,20.86
2022-09-05T18:26:28.396Z,20.81
2022-09-05T18:29:05.958Z,20.75
2022-09-05T18:31:41.529Z,20.71
2022-09-05T18:34:14.602Z,20.68
2022-09-05T18:36:45.912Z,20.62
2022-09-05T18:39:27.711Z,20.52
2022-09-05T18:42:26.367Z,20.42
2022-09-05T18:45:03.169Z,20.34
2022-09-05T18:47:53.076Z,20.32
2022-09-05T18:50:32.474Z,20.30
2022-09-05T18:53:09.698Z,20.31
2022-09-05T18:56:13.855Z,20.27
2022-09-05T18:58:51.681Z,20.27
2022-09-05T19:01:28.493Z,20.26
2022-09-05T19:04:00.874Z,20.24
2022-09-05T19:06:36.307Z,20.21
2022-09-05T19:09:10.666Z,20.10
2022-09-05T19:11:57.592Z,19.95
2022-09-05T19:14:47.205Z,19.94
2022-09-05T19:17:20.197Z,19.96
2022-09-05T19:20:31.725Z,19.98
2022-09-05T19:23:10.970Z,19.93
2022-09-05T19:25:44.310Z,19.86
2022-09-05T19:36:30.814Z,19.84
2022-09-05T19:37:09.976Z,20.00
2022-09-05T19:37:15.381Z,19.89
2022-09-05T19:44:31.100Z,20.01
2022-09-05T19:47:39.628Z,19.97
2022-09-05T19:47:47.749Z,20.15
2022-09-05T19:48:26.237Z,20.46
2022-09-05T19:50:57.589Z,20.75
2022-09-05T19:53:24.712Z,20.86
2022-09-05T19:55:53.621Z,20.88
2022-09-05T19:58:22.656Z,20.88
2022-09-05T20:01:02.461Z,20.91
2022-09-05T20:03:38.698Z,20.89
2022-09-05T20:06:28.951Z,20.84
2022-09-05T20:09:19.235Z,20.85
2022-09-05T20:11:51.181Z,20.83
2022-09-05T20:14:30.506Z,20.75
2022-09-05T20:17:22.194Z,20.61
2022-09-05T20:19:49.515Z,20.56
2022-09-05T20:22:47.804Z,20.47
2022-09-05T20:25:35.927Z,20.31
2022-09-05T20:28:09.900Z,20.27
2022-09-05T20:30:41.275Z,20.15
2022-09-05T20:33:27.919Z,19.97
2022-09-05T20:39:41.066Z,19.85
2022-09-05T20:43:21.935Z,19.03
2022-09-05T20:43:24.415Z,19.30
2022-09-05T20:44:41.729Z,18.96
2022-09-05T20:52:04.262Z,18.97
2022-09-05T20:54:09.054Z,18.88
2022-09-05T20:54:22.575Z,18.81
2022-09-05T20:56:06.611Z,18.80
2022-09-05T20:58:34.910Z,18.69
2022-09-05T21:01:22.925Z,18.58
2022-09-05T21:04:00.989Z,18.49
2022-09-05T21:06:33.789Z,18.41
2022-09-05T21:09:22.469Z,18.34
2022-09-05T21:11:53.066Z,18.26
2022-09-05T21:14:21.389Z,18.25
2022-09-05T21:16:56.124Z,18.19
2022-09-05T21:19:25.385Z,18.17
2022-09-05T21:22:30.381Z,18.09
2022-09-05T21:25:14.938Z,18.11
2022-09-05T21:27:42.877Z,18.12
2022-09-05T21:30:23.538Z,18.01
2022-09-05T21:33:02.262Z,17.99
2022-09-05T21:35:35.016Z,17.93
2022-09-05T21:38:02.105Z,17.81
2022-09-05T21:40:28.697Z,17.76
2022-09-05T21:47:33.879Z,17.74
2022-09-05T21:47:47.848Z,17.66
2022-09-05T21:48:33.041Z,17.61
2022-09-05T21:51:05.855Z,17.62
2022-09-05T21:55:14.820Z,17.62
2022-09-05T21:59:17.321Z,17.61
2022-09-05T21:59:40.035Z,17.64
2022-09-05T22:02:07.119Z,17.62
2022-09-05T22:04:41.382Z,17.62
2022-09-05T22:07:14.205Z,17.56
2022-09-05T22:09:40.590Z,17.57
2022-09-05T22:12:17.453Z,17.59
2022-09-05T22:14:53.573Z,17.61
2022-09-05T22:17:23.660Z,17.60
2022-09-05T22:19:50.701Z,17.56
2022-09-05T22:22:18.267Z,17.64
2022-09-05T22:24:52.006Z,17.59
2022-09-05T22:27:21.333Z,17.58
2022-09-05T22:29:50.801Z,17.57
2022-09-05T22:32:18.190Z,17.56
2022-09-05T22:34:59.371Z,17.58
2022-09-05T22:37:26.280Z,17.59
2022-09-05T22:39:52.731Z,17.62
2022-09-05T22:42:19.156Z,17.65
2022-09-05T22:44:45.526Z,17.72
2022-09-05T22:47:11.936Z,17.66
2022-09-05T22:49:38.411Z,17.63
2022-09-05T22:52:09.583Z,17.49
2022-09-05T22:54:36.379Z,17.50
2022-09-05T22:57:04.175Z,17.49
2022-09-05T22:59:31.300Z,17.50
2022-09-05T23:01:57.773Z,17.54
2022-09-05T23:04:24.390Z,17.54
2022-09-05T23:06:50.837Z,17.55
2022-09-05T23:09:17.260Z,17.54
2022-09-05T23:11:43.670Z,17.53
2022-09-05T23:14:10.090Z,17.51
2022-09-05T23:16:36.485Z,17.44
2022-09-05T23:19:02.973Z,17.47
2022-09-05T23:21:29.361Z,17.46
2022-09-05T23:23:55.744Z,17.44
2022-09-05T23:26:22.383Z,17.41
2022-09-05T23:28:48.818Z,17.44
2022-09-05T23:31:15.322Z,17.44
2022-09-05T23:33:42.214Z,17.38
2022-09-05T23:36:13.700Z,17.37
2022-09-05T23:38:43.685Z,17.33
2022-09-05T23:41:14.949Z,17.30
2022-09-05T23:43:41.991Z,17.33
2022-09-05T23:46:08.547Z,17.27
2022-09-05T23:48:35.305Z,17.27
2022-09-05T23:51:07.203Z,17.28
2022-09-05T23:53:33.732Z,17.33
2022-09-05T23:56:02.052Z,17.32
2022-09-05T23:58:29.882Z,17.30
